Time;durP1;ratioP1;P1;durP2;ratioP2;P2;SDS_P1;SDS_P2;PMS_P1;PMS_P2;Temp;Humidity;BMP_temperature;BMP_pressure;BME280_temperature;BME280_humidity;BME280_pressure;Samples;Min_cycle;Max_cycle;Signal;HPM_P1;HPM_P2
2023/06/01 00:01:40;;;;;;;1.43;1.33;;;;;;;17.99;63.07;95495.69;4371125;32;20174;-67
2023/06/01 00:04:07;;;;;;;1.40;1.37;;;;;;;17.83;63.86;95507.09;4356013;32;20219;-66
2023/06/01 00:06:32;;;;;;;2.03;1.83;;;;;;;17.72;64.04;95495.22;4348724;32;20178;-67
2023/06/01 00:08:58;;;;;;;2.07;1.87;;;;;;;17.69;64.26;95501.25;4370141;32;20235;-62
2023/06/01 00:11:23;;;;;;;2.10;1.87;;;;;;;17.60;64.90;95495.19;4358788;32;20180;-67
2023/06/01 00:13:49;;;;;;;1.30;1.30;;;;;;;17.69;64.67;95506.63;4351074;32;20303;-67
2023/06/01 00:16:15;;;;;;;2.03;1.93;;;;;;;17.66;64.75;95493.88;4348624;32;20220;-67
2023/06/01 00:18:41;;;;;;;1.70;1.60;;;;;;;17.64;64.96;95504.16;4373083;32;20189;-67
2023/06/01 00:21:07;;;;;;;2.47;2.27;;;;;;;17.71;64.49;95500.91;4359609;32;20211;-67
2023/06/01 00:23:33;;;;;;;0.87;0.87;;;;;;;17.68;64.96;95497.00;4367085;32;20231;-67
2023/06/01 00:25:59;;;;;;;1.97;1.87;;;;;;;17.65;64.92;95500.38;4366294;32;20182;-66
2023/06/01 00:28:24;;;;;;;2.10;1.87;;;;;;;17.72;64.84;95499.81;4375613;32;20176;-67
2023/06/01 00:30:51;;;;;;;2.10;1.77;;;;;;;17.80;64.97;95501.59;4358068;32;20185;-67
2023/06/01 00:33:16;;;;;;;1.33;1.33;;;;;;;17.91;64.51;95501.94;4352769;32;20270;-67
2023/06/01 00:35:42;;;;;;;1.60;1.60;;;;;;;17.89;64.57;95496.13;4366585;32;20184;-67
2023/06/01 00:38:07;;;;;;;1.93;1.83;;;;;;;17.77;64.95;95494.22;4360738;32;20190;-67
2023/06/01 00:40:36;;;;;;;1.70;1.40;;;;;;;17.80;65.13;95494.34;4359156;32;20228;-66
2023/06/01 00:43:02;;;;;;;2.47;1.90;;;;;;;17.84;64.77;95502.50;4360490;32;20216;-67
2023/06/01 00:45:27;;;;;;;1.33;1.10;;;;;;;17.85;64.80;95494.13;4372252;32;20182;-67
2023/06/01 00:47:53;;;;;;;3.47;3.27;;;;;;;17.89;64.90;95488.06;4364668;32;20219;-67
2023/06/01 00:50:19;;;;;;;8.70;3.03;;;;;;;17.67;65.07;95486.59;4347936;32;20177;-67
2023/06/01 00:52:46;;;;;;;4.17;2.07;;;;;;;17.56;65.59;95478.19;4364913;32;20264;-67
2023/06/01 00:55:12;;;;;;;3.40;2.20;;;;;;;17.66;66.00;95485.84;4366325;32;20194;-67
2023/06/01 00:57:43;;;;;;;3.17;2.33;;;;;;;17.74;65.80;95484.16;4357615;32;20290;-67
2023/06/01 01:00:10;;;;;;;2.50;2.30;;;;;;;17.84;65.33;95484.50;4370673;32;20216;-67
2023/06/01 01:02:40;;;;;;;1.93;1.83;;;;;;;17.90;65.39;95484.25;4366695;32;20220;-67
2023/06/01 01:05:09;;;;;;;11.03;2.57;;;;;;;17.89;64.99;95486.16;4350642;32;20220;-66
2023/06/01 01:07:53;;;;;;;1.23;1.23;;;;;;;17.96;65.30;95488.28;4369634;32;20195;-67
2023/06/01 01:10:55;;;;;;;1.37;1.37;;;;;;;17.77;65.30;95494.22;4377731;32;20287;-67
2023/06/01 01:13:30;;;;;;;1.87;1.77;;;;;;;17.73;65.28;95496.78;4355963;32;20188;-67
2023/06/01 01:16:02;;;;;;;2.00;1.90;;;;;;;17.65;65.89;95488.84;4361605;32;20181;-67
2023/06/01 01:18:35;;;;;;;1.57;1.57;;;;;;;17.55;65.83;95491.94;4362255;32;20189;-62
2023/06/01 01:21:03;;;;;;;1.27;1.27;;;;;;;17.61;65.68;95482.56;4369219;32;20200;-66
2023/06/01 01:23:43;;;;;;;1.50;1.40;;;;;;;17.62;66.55;95484.13;4368648;32;20230;-66
2023/06/01 01:26:12;;;;;;;1.00;1.00;;;;;;;17.62;66.44;95484.13;4365971;32;20177;-67
2023/06/01 01:28:42;;;;;;;2.03;1.93;;;;;;;17.65;66.70;95478.12;4357609;32;20176;-66
2023/06/01 01:31:12;;;;;;;1.50;1.50;;;;;;;17.53;66.23;95481.53;4348355;32;20287;-66
2023/06/01 01:33:39;;;;;;;3.10;2.13;;;;;;;17.49;66.33;95470.69;4348861;32;20207;-66
2023/06/01 01:36:06;;;;;;;2.27;1.83;;;;;;;17.51;66.34;95473.03;4351892;32;20251;-66
2023/06/01 01:38:35;;;;;;;1.20;1.17;;;;;;;17.52;66.53;95480.75;4363046;32;20197;-67
2023/06/01 01:41:01;;;;;;;2.13;2.03;;;;;;;17.40;67.21;95471.91;4348151;32;20200;-66
2023/06/01 01:43:26;;;;;;;1.57;1.50;;;;;;;17.47;66.62;95472.13;4363395;32;20188;-67
2023/06/01 01:46:07;;;;;;;2.37;2.17;;;;;;;17.43;66.70;95471.25;4363251;32;20248;-67
2023/06/01 01:48:39;;;;;;;0.87;0.87;;;;;;;17.42;67.22;95469.69;4361650;32;20185;-67
2023/06/01 01:51:13;;;;;;;2.10;2.00;;;;;;;17.61;67.07;95477.19;4353968;32;20256;-67
2023/06/01 01:53:44;;;;;;;2.07;1.97;;;;;;;17.60;66.53;95481.00;4363780;32;20181;-67
2023/06/01 01:56:11;;;;;;;1.60;1.50;;;;;;;17.53;66.98;95481.53;4359393;32;20189;-67
2023/06/01 01:58:38;;;;;;;4.27;1.73;;;;;;;17.41;67.28;95484.19;4361672;32;20287;-66
2023/06/01 02:01:04;;;;;;;1.77;1.67;;;;;;;17.44;67.08;95484.31;4363441;32;20185;-67
2023/06/01 02:03:29;;;;;;;2.23;2.13;;;;;;;17.27;67.59;95483.69;4364885;32;20242;-67
2023/06/01 02:05:54;;;;;;;2.03;1.93;;;;;;;17.40;67.32;95485.31;4350083;32;20216;-67
2023/06/01 02:08:20;;;;;;;1.50;1.50;;;;;;;17.33;67.30;95487.75;4364801;32;20180;-67
2023/06/01 02:10:45;;;;;;;1.23;1.23;;;;;;;17.36;67.34;95489.78;4360321;32;20216;-67
2023/06/01 02:13:10;;;;;;;1.50;1.47;;;;;;;17.32;67.25;95491.53;4353452;32;20185;-67
2023/06/01 02:15:36;;;;;;;2.13;2.03;;;;;;;17.23;67.77;95496.22;4361589;32;20189;-67
2023/06/01 02:18:02;;;;;;;2.10;2.00;;;;;;;17.19;68.14;95490.72;4365563;32;20185;-67
2023/06/01 02:20:27;;;;;;;2.50;2.30;;;;;;;17.19;68.40;95493.41;4354324;32;20185;-67
2023/06/01 02:22:53;;;;;;;1.47;1.37;;;;;;;17.07;68.55;95486.09;4358376;32;20224;-67
2023/06/01 02:25:19;;;;;;;2.60;2.20;;;;;;;17.06;68.65;95484.53;4364267;32;20310;-67
2023/06/01 02:27:44;;;;;;;2.70;2.33;;;;;;;16.95;69.09;95485.28;4358605;32;20192;-67
2023/06/01 02:30:10;;;;;;;1.87;1.77;;;;;;;16.84;69.66;95484.88;4347181;32;20230;-67
2023/06/01 02:32:37;;;;;;;3.40;2.00;;;;;;;16.92;69.43;95484.03;4371113;32;20255;-66
2023/06/01 02:35:03;;;;;;;2.40;2.30;;;;;;;16.92;69.15;95480.56;4365842;32;20189;-67
2023/06/01 02:37:28;;;;;;;1.67;1.57;;;;;;;16.90;69.15;95486.25;4371991;32;20189;-63
2023/06/01 02:39:53;;;;;;;4.40;2.13;;;;;;;16.92;69.43;95483.25;4367520;32;20199;-67
2023/06/01 02:42:19;;;;;;;1.97;1.87;;;;;;;16.81;69.57;95482.91;4353931;32;20242;-67
2023/06/01 02:44:44;;;;;;;1.07;1.07;;;;;;;16.75;69.69;95476.16;4346273;32;20231;-67
2023/06/01 02:47:10;;;;;;;2.23;1.93;;;;;;;16.92;69.22;95478.69;4361127;32;20231;-67
2023/06/01 02:49:35;;;;;;;0.97;0.97;;;;;;;16.86;69.55;95480.00;4350903;32;20247;-67
2023/06/01 02:52:00;;;;;;;2.60;2.40;;;;;;;16.74;69.50;95482.63;4363145;32;20185;-67
2023/06/01 02:54:26;;;;;;;2.30;1.13;;;;;;;16.84;69.51;95477.62;4354134;32;20190;-67
2023/06/01 02:56:51;;;;;;;1.97;1.87;;;;;;;16.88;69.58;95477.78;4357132;32;20185;-67
2023/06/01 02:59:16;;;;;;;1.87;1.77;;;;;;;16.89;69.23;95481.22;4362157;32;20185;-67
2023/06/01 03:01:42;;;;;;;1.93;1.83;;;;;;;16.77;69.66;95476.63;4361357;32;20205;-67
2023/06/01 03:04:08;;;;;;;1.67;1.67;;;;;;;16.86;69.11;95477.31;4364123;32;20181;-67
2023/06/01 03:06:37;;;;;;;2.27;2.17;;;;;;;16.82;69.52;95481.78;4349399;32;20219;-67
2023/06/01 03:09:03;;;;;;;1.83;1.73;;;;;;;16.87;69.27;95476.19;4352576;32;20185;-67
2023/06/01 03:11:28;;;;;;;1.73;1.63;;;;;;;16.84;69.42;95483.00;4370086;32;20197;-66
2023/06/01 03:13:56;;;;;;;1.57;1.47;;;;;;;17.03;68.80;95474.50;4367058;32;20204;-67
2023/06/01 03:16:22;;;;;;;2.23;1.53;;;;;;;16.95;68.88;95483.38;4361545;32;20216;-67
2023/06/01 03:18:47;;;;;;;19.83;2.13;;;;;;;17.01;68.74;95482.06;4372842;32;20189;-67
2023/06/01 03:21:12;;;;;;;9.67;2.50;;;;;;;16.70;69.42;95476.34;4352298;32;20197;-67
2023/06/01 03:23:43;;;;;;;3.60;1.63;;;;;;;16.75;69.37;95476.16;4376547;32;20180;-67
2023/06/01 03:26:09;;;;;;;1.53;1.50;;;;;;;16.49;70.47;95482.47;4352343;32;20193;-66
2023/06/01 03:28:34;;;;;;;1.60;1.60;;;;;;;16.53;70.66;95477.25;4346189;32;20291;-66
2023/06/01 03:31:01;;;;;;;2.77;1.63;;;;;;;16.65;70.10;95479.22;4350732;32;20200;-66
2023/06/01 03:33:26;;;;;;;1.67;1.57;;;;;;;16.70;69.30;95482.50;4360127;32;20238;-67
2023/06/01 03:35:52;;;;;;;12.97;1.90;;;;;;;16.67;69.95;95483.16;4353156;32;20233;-59
2023/06/01 03:38:17;;;;;;;6.80;2.17;;;;;;;16.63;69.44;95481.41;4362882;32;20181;-60
2023/06/01 03:40:42;;;;;;;2.13;1.57;;;;;;;16.69;69.33;95480.13;4375106;32;20199;-60
2023/06/01 03:43:07;;;;;;;2.33;2.03;;;;;;;16.80;69.25;95478.66;4365009;32;20181;-60
2023/06/01 03:45:33;;;;;;;1.20;1.20;;;;;;;16.87;69.24;95480.78;4354638;32;20236;-60
2023/06/01 03:47:58;;;;;;;3.67;2.00;;;;;;;16.88;68.31;95483.13;4368972;32;20173;-60
2023/06/01 03:50:23;;;;;;;2.33;2.13;;;;;;;16.95;68.73;95483.38;4367052;32;20210;-60
2023/06/01 03:52:49;;;;;;;1.53;1.53;;;;;;;16.90;68.33;95480.91;4355531;32;20186;-60
2023/06/01 03:55:14;;;;;;;1.60;1.50;;;;;;;16.71;69.55;95489.41;4352961;32;20227;-61
2023/06/01 03:57:40;;;;;;;1.73;1.63;;;;;;;16.79;68.90;95485.91;4371278;32;20248;-60
2023/06/01 04:00:18;;;;;;;1.80;1.70;;;;;;;16.69;69.50;95480.13;4360184;32;20243;-59
2023/06/01 04:02:52;;;;;;;2.47;2.27;;;;;;;16.54;69.72;95489.53;4354432;32;20196;-60
2023/06/01 04:05:17;;;;;;;2.13;1.93;;;;;;;16.85;68.57;95486.47;4361165;32;20248;-60
2023/06/01 04:07:45;;;;;;;1.57;1.47;;;;;;;16.77;68.77;95485.44;4366074;32;20185;-60
2023/06/01 04:10:13;;;;;;;2.13;2.03;;;;;;;16.82;68.88;95487.16;4360306;32;20203;-61
2023/06/01 04:12:39;;;;;;;2.27;1.87;;;;;;;16.72;68.15;95482.16;4366329;32;20196;-60
2023/06/01 04:15:05;;;;;;;1.77;1.67;;;;;;;16.90;68.26;95486.25;4355413;32;20218;-60
2023/06/01 04:17:30;;;;;;;1.70;1.60;;;;;;;16.90;68.36;95488.94;4364834;32;20195;-60
2023/06/01 04:19:56;;;;;;;2.00;1.90;;;;;;;16.84;68.80;95487.56;4366516;32;20181;-60
2023/06/01 04:22:24;;;;;;;1.97;1.87;;;;;;;16.73;68.82;95483.75;4345719;32;20203;-60
2023/06/01 04:24:49;;;;;;;2.10;2.00;;;;;;;16.83;68.38;95492.16;4362756;32;20272;-60
2023/06/01 04:27:16;;;;;;;1.83;1.83;;;;;;;16.83;68.19;95491.41;4355710;32;20177;-60
2023/06/01 04:29:48;;;;;;;3.23;2.00;;;;;;;16.80;68.14;95494.72;4355498;32;20223;-60
2023/06/01 04:32:21;;;;;;;2.37;2.17;;;;;;;16.88;67.95;95487.69;4364399;32;20184;-60
2023/06/01 04:34:49;;;;;;;1.67;1.67;;;;;;;16.93;68.20;95490.19;4355106;32;20251;-60
2023/06/01 04:37:19;;;;;;;8.77;2.23;;;;;;;17.01;67.66;95498.16;4345364;32;20193;-60
2023/06/01 04:39:48;;;;;;;3.83;1.87;;;;;;;16.94;68.11;95497.13;4362103;32;20187;-60
2023/06/01 04:42:14;;;;;;;2.27;2.07;;;;;;;16.91;68.53;95490.50;4354504;32;20189;-60
2023/06/01 04:44:41;;;;;;;3.80;2.47;;;;;;;17.04;67.50;95497.47;4373029;32;20245;-61
2023/06/01 04:47:07;;;;;;;1.70;1.60;;;;;;;17.09;68.18;95493.81;4364901;32;20221;-60
2023/06/01 04:49:32;;;;;;;2.10;1.90;;;;;;;17.15;67.76;95501.34;4359703;32;20203;-60
2023/06/01 04:51:57;;;;;;;2.43;2.07;;;;;;;17.13;67.80;95497.41;4360852;32;20261;-61
2023/06/01 04:54:23;;;;;;;2.37;2.17;;;;;;;17.09;68.20;95499.97;4360709;32;20173;-60
2023/06/01 04:56:48;;;;;;;2.67;2.43;;;;;;;17.09;68.00;95499.19;4350768;32;20265;-60
2023/06/01 04:59:15;;;;;;;1.57;1.47;;;;;;;17.04;68.43;95494.81;4335730;32;20303;-60
2023/06/01 05:01:40;;;;;;;2.17;2.07;;;;;;;17.12;67.88;95490.47;4354298;32;20177;-61
2023/06/01 05:04:05;;;;;;;1.27;1.27;;;;;;;17.16;67.88;95492.19;4363613;32;20208;-60
2023/06/01 05:06:31;;;;;;;2.77;2.23;;;;;;;17.10;67.97;95495.38;4354349;32;20177;-60
2023/06/01 05:08:58;;;;;;;2.37;2.07;;;;;;;17.08;68.52;95493.03;4362814;32;20177;-60
2023/06/01 05:11:23;;;;;;;1.20;1.20;;;;;;;17.21;68.37;95501.12;4352838;32;20260;-60
2023/06/01 05:13:51;;;;;;;2.07;1.97;;;;;;;17.32;67.67;95500.38;4373290;32;20268;-60
2023/06/01 05:16:16;;;;;;;1.03;1.03;;;;;;;17.33;67.51;95493.91;4356396;32;20224;-60
2023/06/01 05:18:42;;;;;;;3.40;2.20;;;;;;;17.21;68.14;95495.78;4346122;32;20195;-60
2023/06/01 05:21:07;;;;;;;1.97;1.87;;;;;;;17.23;68.02;95497.00;4355681;32;20189;-60
2023/06/01 05:23:32;;;;;;;2.43;1.43;;;;;;;17.35;67.75;95498.94;4361191;32;20184;-61
2023/06/01 05:26:01;;;;;;;3.10;1.90;;;;;;;17.23;68.16;95498.91;4362964;32;20173;-61
2023/06/01 05:28:32;;;;;;;1.77;1.57;;;;;;;17.13;68.42;95500.09;4353943;32;20177;-60
2023/06/01 05:30:57;;;;;;;2.53;2.27;;;;;;;17.28;68.04;95498.69;4350413;32;20181;-60
2023/06/01 05:33:23;;;;;;;1.63;1.53;;;;;;;17.23;67.75;95499.69;4358493;32;20219;-60
2023/06/01 05:35:48;;;;;;;2.40;2.20;;;;;;;17.42;67.79;95497.28;4360862;32;20278;-61
2023/06/01 05:38:14;;;;;;;2.70;2.43;;;;;;;17.47;66.08;95496.25;4360826;32;20207;-60
2023/06/01 05:40:39;;;;;;;1.57;1.53;;;;;;;17.46;66.87;95500.06;4361323;32;20251;-60
2023/06/01 05:43:06;;;;;;;2.20;2.03;;;;;;;17.45;66.70;95498.53;4352329;32;20220;-60
2023/06/01 05:45:32;;;;;;;2.90;2.70;;;;;;;17.47;65.54;95509.66;4354532;32;20185;-61
2023/06/01 05:47:57;;;;;;;1.57;1.57;;;;;;;17.52;67.35;95496.06;4364949;32;20184;-60
2023/06/01 05:50:22;;;;;;;1.40;1.40;;;;;;;17.51;67.27;95500.62;4363043;32;20216;-60
2023/06/01 05:52:47;;;;;;;2.47;2.30;;;;;;;17.51;67.88;95503.31;4365744;32;23296;-60
2023/06/01 05:55:13;;;;;;;3.53;1.93;;;;;;;17.63;67.52;95496.41;4365826;32;20194;-60
2023/06/01 05:57:38;;;;;;;1.60;1.60;;;;;;;17.67;66.67;95495.44;4356462;32;20196;-60
2023/06/01 06:00:09;;;;;;;4.60;2.53;;;;;;;17.72;66.79;95484.47;4350327;32;20199;-60
2023/06/01 06:02:35;;;;;;;1.37;1.27;;;;;;;17.64;67.14;95498.00;4341588;32;20207;-60
2023/06/01 06:05:00;;;;;;;1.90;1.80;;;;;;;17.76;67.48;95501.50;4366058;32;20188;-60
2023/06/01 06:07:25;;;;;;;3.97;1.93;;;;;;;17.77;65.74;95504.97;4352346;32;20184;-60
2023/06/01 06:09:51;;;;;;;2.40;2.30;;;;;;;17.80;66.36;95502.38;4346092;32;20178;-60
2023/06/01 06:12:16;;;;;;;2.60;2.50;;;;;;;17.94;66.08;95498.59;4345181;32;20231;-60
2023/06/01 06:14:41;;;;;;;2.40;2.30;;;;;;;18.05;66.02;95497.03;4340884;32;20186;-60
2023/06/01 06:17:07;;;;;;;3.43;2.27;;;;;;;17.99;65.40;95498.38;4342485;32;20181;-60
2023/06/01 06:19:32;;;;;;;6.53;2.20;;;;;;;18.06;65.55;95495.91;4337556;32;20193;-61
2023/06/01 06:21:58;;;;;;;4.87;1.97;;;;;;;18.04;65.12;95498.94;4337427;32;20268;-60
2023/06/01 06:24:23;;;;;;;2.33;1.87;;;;;;;18.11;66.27;95506.41;4346682;32;20262;-60
2023/06/01 06:26:48;;;;;;;4.07;2.33;;;;;;;18.26;65.03;95503.06;4339030;32;20211;-61
2023/06/01 06:29:14;;;;;;;2.47;2.27;;;;;;;18.31;64.66;95504.72;4351719;32;20203;-65
2023/06/01 06:31:39;;;;;;;4.97;1.83;;;;;;;18.36;63.92;95502.59;4347030;32;20182;-60
2023/06/01 06:34:05;;;;;;;3.63;1.90;;;;;;;18.43;63.87;95508.19;4340343;32;20197;-61
2023/06/01 06:36:30;;;;;;;2.43;2.27;;;;;;;18.47;64.41;95509.09;4339914;32;20193;-60
2023/06/01 06:38:55;;;;;;;5.33;3.20;;;;;;;18.44;62.87;95508.97;4345517;32;20185;-61
2023/06/01 06:41:21;;;;;;;2.50;2.30;;;;;;;18.47;63.06;95503.72;4345029;32;20186;-60
2023/06/01 06:43:46;;;;;;;2.63;2.17;;;;;;;18.53;63.43;95510.41;4362603;32;20267;-60
2023/06/01 06:46:12;;;;;;;3.13;2.30;;;;;;;18.73;63.48;95513.28;4355732;32;20199;-61
2023/06/01 06:48:37;;;;;;;2.80;2.60;;;;;;;18.77;63.43;95503.44;4345698;32;20205;-60
2023/06/01 06:51:02;;;;;;;2.23;2.00;;;;;;;18.86;63.69;95498.72;4356609;32;20239;-60
2023/06/01 06:53:28;;;;;;;1.97;1.87;;;;;;;18.83;63.09;95504.75;4361298;32;20200;-60
2023/06/01 06:55:53;;;;;;;4.70;1.90;;;;;;;18.84;62.73;95506.34;4354512;32;20185;-61
2023/06/01 06:58:18;;;;;;;2.37;2.27;;;;;;;18.94;63.30;95505.03;4342065;32;20230;-61
2023/06/01 07:00:44;;;;;;;1.73;1.70;;;;;;;18.95;62.80;95507.41;4343380;32;20272;-64
2023/06/01 07:03:10;;;;;;;2.17;2.07;;;;;;;19.01;62.94;95505.25;4357863;32;20223;-60
2023/06/01 07:05:35;;;;;;;2.10;2.00;;;;;;;18.99;63.19;95508.28;4374633;32;20228;-60
2023/06/01 07:08:00;;;;;;;2.07;1.97;;;;;;;18.90;62.85;95498.81;4348796;32;20197;-60
2023/06/01 07:10:27;;;;;;;2.30;2.10;;;;;;;19.33;62.60;95500.75;4351911;32;20376;-60
2023/06/01 07:12:53;;;;;;;2.10;2.00;;;;;;;19.69;61.88;95495.19;4351908;32;20211;-60
2023/06/01 07:15:18;;;;;;;1.77;1.73;;;;;;;19.79;60.07;95496.56;4365276;32;20181;-61
2023/06/01 07:17:44;;;;;;;1.57;1.57;;;;;;;19.77;60.09;95502.28;4345561;32;20300;-63
2023/06/01 07:20:12;;;;;;;1.80;1.70;;;;;;;19.61;60.88;95501.50;4362321;32;20235;-60
2023/06/01 07:22:38;;;;;;;2.03;1.93;;;;;;;19.56;62.15;95505.22;4350483;32;20180;-61
2023/06/01 07:25:05;;;;;;;3.30;2.87;;;;;;;19.71;61.57;95501.00;4360876;32;20337;-61
2023/06/01 07:27:31;;;;;;;3.23;2.23;;;;;;;19.83;60.77;95502.81;4342334;32;20182;-61
2023/06/01 07:29:56;;;;;;;1.30;1.30;;;;;;;19.78;60.88;95503.84;4347643;32;20178;-60
2023/06/01 07:32:23;;;;;;;1.60;1.60;;;;;;;19.74;59.96;95505.69;4357415;32;20188;-60
2023/06/01 07:34:48;;;;;;;1.50;1.50;;;;;;;19.83;58.92;95503.59;4358127;32;20189;-61
2023/06/01 07:37:13;;;;;;;2.93;2.30;;;;;;;19.77;59.62;95498.81;4341646;32;20182;-61
2023/06/01 07:39:39;;;;;;;2.57;2.10;;;;;;;19.69;59.84;95507.84;4349010;32;20174;-61
2023/06/01 07:42:05;;;;;;;2.13;2.00;;;;;;;19.65;60.66;95499.69;4344587;32;20178;-61
2023/06/01 07:44:30;;;;;;;1.50;1.50;;;;;;;19.72;59.95;95497.19;4356574;32;20193;-60
2023/06/01 07:46:56;;;;;;;2.00;1.90;;;;;;;19.77;59.54;95496.13;4360085;32;20205;-61
2023/06/01 07:49:21;;;;;;;1.67;1.67;;;;;;;19.78;58.76;95503.84;4348182;32;20170;-60
2023/06/01 07:51:47;;;;;;;2.00;1.90;;;;;;;19.76;59.04;95508.78;4337391;32;20300;-61
2023/06/01 07:54:12;;;;;;;1.67;1.60;;;;;;;19.92;59.39;95499.97;4348158;32;20181;-61
2023/06/01 07:56:37;;;;;;;2.43;2.27;;;;;;;19.77;59.73;95501.50;4346468;32;20204;-60
2023/06/01 07:59:02;;;;;;;1.50;1.50;;;;;;;19.90;58.22;95495.69;4347839;32;20212;-60
2023/06/01 08:01:28;;;;;;;1.23;1.23;;;;;;;19.96;58.61;95500.81;4352901;32;20247;-60
2023/06/01 08:03:55;;;;;;;1.73;1.63;;;;;;;20.05;58.23;95498.72;4339653;32;20173;-60
2023/06/01 08:06:22;;;;;;;1.27;1.27;;;;;;;20.00;58.83;95496.28;4353753;32;20189;-61
2023/06/01 08:08:49;;;;;;;1.73;1.63;;;;;;;20.06;58.17;95497.59;4353739;32;20221;-60
2023/06/01 08:11:15;;;;;;;5.97;1.80;;;;;;;20.16;58.00;95489.75;4353987;32;20201;-61
2023/06/01 08:13:41;;;;;;;4.23;2.90;;;;;;;20.20;58.04;95496.00;4361611;32;20180;-60
2023/06/01 08:16:06;;;;;;;2.17;2.07;;;;;;;20.34;58.08;95500.97;4358278;32;20252;-60
2023/06/01 08:18:32;;;;;;;2.07;1.97;;;;;;;20.32;57.70;95497.81;4360212;32;20327;-61
2023/06/01 08:21:00;;;;;;;1.90;1.80;;;;;;;20.26;58.09;95499.22;4364649;32;20280;-60
2023/06/01 08:23:25;;;;;;;2.50;2.40;;;;;;;20.27;57.97;95492.69;4340841;32;20200;-61
2023/06/01 08:25:51;;;;;;;1.83;1.73;;;;;;;20.26;57.63;95496.53;4356553;32;20267;-61
2023/06/01 08:28:16;;;;;;;2.83;2.30;;;;;;;20.28;58.14;95491.56;4364613;32;20258;-61
2023/06/01 08:30:41;;;;;;;2.00;1.90;;;;;;;20.41;56.38;95501.12;4362062;32;20193;-60
2023/06/01 08:33:06;;;;;;;2.37;2.27;;;;;;;20.41;56.71;95494.94;4357240;32;20234;-59
2023/06/01 08:35:33;;;;;;;2.57;2.37;;;;;;;20.51;56.20;95497.13;4355762;32;20215;-61
2023/06/01 08:38:02;;;;;;;1.53;1.47;;;;;;;20.55;56.00;95492.59;4360468;32;20197;-61
2023/06/01 08:40:31;;;;;;;2.03;1.93;;;;;;;20.56;57.25;95486.84;4346955;32;20224;-61
2023/06/01 08:43:02;;;;;;;1.63;1.53;;;;;;;20.67;56.41;95487.06;4367021;32;20437;-61
2023/06/01 08:45:28;;;;;;;1.47;1.47;;;;;;;20.67;55.12;95491.66;4363309;32;20224;-61
2023/06/01 08:47:54;;;;;;;2.93;1.33;;;;;;;20.65;56.09;95489.31;4347159;32;20189;-61
2023/06/01 08:50:20;;;;;;;1.47;1.47;;;;;;;20.76;55.74;95484.16;4342992;32;20189;-61
2023/06/01 08:52:47;;;;;;;8.17;2.00;;;;;;;20.83;55.78;95489.69;4365501;32;20176;-61
2023/06/01 08:55:14;;;;;;;3.43;3.13;;;;;;;20.96;55.74;95488.44;4365878;32;20222;-62
2023/06/01 08:57:43;;;;;;;1.87;1.87;;;;;;;20.92;56.67;95490.28;4348373;32;20191;-61
2023/06/01 09:00:11;;;;;;;0.77;0.77;;;;;;;20.94;55.58;95496.09;4366559;32;20176;-61
2023/06/01 09:02:37;;;;;;;2.73;2.50;;;;;;;20.94;55.52;95496.09;4350042;32;20188;-60
2023/06/01 09:05:03;;;;;;;1.57;1.47;;;;;;;20.90;56.27;95500.62;4369032;32;20189;-60
2023/06/01 09:07:31;;;;;;;1.10;1.10;;;;;;;20.88;56.87;95498.28;4350562;32;20200;-61
2023/06/01 09:09:56;;;;;;;1.43;1.43;;;;;;;21.02;56.76;95489.69;4343243;32;20275;-60
2023/06/01 09:12:29;;;;;;;7.53;2.03;;;;;;;21.00;56.78;95485.78;4363989;32;20169;-61
2023/06/01 09:15:03;;;;;;;2.03;1.87;;;;;;;21.13;56.44;95493.38;4364817;32;20181;-60
2023/06/01 09:17:29;;;;;;;3.43;2.60;;;;;;;21.12;56.72;95493.75;4353429;32;20201;-61
2023/06/01 09:19:57;;;;;;;1.90;1.83;;;;;;;21.10;56.28;95490.63;4353321;32;20203;-61
2023/06/01 09:22:23;;;;;;;1.97;1.87;;;;;;;21.10;56.61;95494.09;4369299;32;20200;-61
2023/06/01 09:24:58;;;;;;;2.57;2.43;;;;;;;21.22;56.12;95490.47;4348922;32;20223;-61
2023/06/01 09:27:24;;;;;;;1.80;1.70;;;;;;;21.15;56.77;95493.03;4347926;32;20193;-62
2023/06/01 09:29:56;;;;;;;1.67;1.57;;;;;;;21.25;56.11;95489.78;4361717;32;20204;-61
2023/06/01 09:32:22;;;;;;;2.33;2.17;;;;;;;21.45;56.02;95494.00;4344441;32;20195;-62
2023/06/01 09:34:48;;;;;;;1.87;1.77;;;;;;;21.47;55.99;95486.31;4358716;32;20193;-62
2023/06/01 09:37:13;;;;;;;4.00;2.30;;;;;;;21.53;55.32;95486.81;4346647;32;20199;-61
2023/06/01 09:39:40;;;;;;;2.27;2.17;;;;;;;21.59;54.85;95478.06;4342907;32;20181;-61
2023/06/01 09:42:09;;;;;;;4.47;2.63;;;;;;;21.68;54.26;95480.50;4369262;32;20242;-61
2023/06/01 09:44:36;;;;;;;1.60;1.60;;;;;;;21.63;54.35;95483.50;4355149;32;20374;-61
2023/06/01 09:47:03;;;;;;;1.50;1.40;;;;;;;21.74;54.18;95478.31;4363300;32;20231;-61
2023/06/01 09:49:30;;;;;;;1.97;1.83;;;;;;;21.80;54.44;95483.06;4366885;32;20184;-61
2023/06/01 09:52:04;;;;;;;2.67;2.57;;;;;;;21.88;54.58;95478.53;4352863;32;20197;-61
2023/06/01 09:54:36;;;;;;;1.67;1.57;;;;;;;21.96;53.59;95477.50;4351378;32;20241;-61
2023/06/01 09:57:03;;;;;;;1.60;1.50;;;;;;;21.93;53.63;95470.12;4369070;32;20189;-61
2023/06/01 09:59:30;;;;;;;2.07;1.63;;;;;;;22.13;52.88;95476.25;4352879;32;20197;-61
2023/06/01 10:01:58;;;;;;;2.03;1.93;;;;;;;22.22;52.71;95472.16;4356771;32;20262;-61
2023/06/01 10:04:26;;;;;;;1.80;1.77;;;;;;;22.23;53.08;95459.44;4363721;32;20177;-61
2023/06/01 10:06:53;;;;;;;1.67;1.67;;;;;;;22.35;52.70;95453.78;4359838;32;20216;-61
2023/06/01 10:09:21;;;;;;;1.97;1.87;;;;;;;22.53;51.92;95448.63;4366484;32;20201;-61
2023/06/01 10:11:52;;;;;;;1.67;1.57;;;;;;;22.71;51.92;95456.97;4355687;32;20255;-61
2023/06/01 10:14:22;;;;;;;1.03;1.03;;;;;;;22.66;51.73;95454.56;4361375;32;20259;-61
2023/06/01 10:16:50;;;;;;;1.87;1.77;;;;;;;22.62;51.99;95449.13;4358125;32;20229;-61
2023/06/01 10:19:17;;;;;;;1.80;1.67;;;;;;;22.71;51.09;95448.84;4370444;32;20181;-61
2023/06/01 10:21:45;;;;;;;2.27;2.00;;;;;;;22.85;49.81;95446.38;4363038;32;20263;-62
2023/06/01 10:24:11;;;;;;;2.33;2.23;;;;;;;22.73;49.61;95441.94;4358323;32;20197;-61
2023/06/01 10:26:43;;;;;;;1.37;1.37;;;;;;;22.82;49.63;95439.75;4360601;32;20217;-61
2023/06/01 10:29:10;;;;;;;1.50;1.40;;;;;;;22.95;48.89;95451.88;4351541;32;20272;-61
2023/06/01 10:31:41;;;;;;;2.03;1.93;;;;;;;22.94;49.70;95441.44;4368354;32;20188;-61
2023/06/01 10:34:09;;;;;;;4.27;2.17;;;;;;;23.04;48.39;95446.19;4344251;32;20228;-61
2023/06/01 10:36:52;;;;;;;1.43;1.33;;;;;;;22.92;48.71;95438.31;4364316;32;23688;-61
2023/06/01 10:39:36;;;;;;;1.67;1.30;;;;;;;23.05;47.33;95439.62;4357543;32;20307;-61
2023/06/01 10:42:12;;;;;;;3.37;1.63;;;;;;;23.00;47.08;95444.59;4352726;32;20212;-61
2023/06/01 10:44:40;;;;;;;1.07;1.07;;;;;;;22.88;47.29;95426.66;4364646;32;20176;-62
2023/06/01 10:47:11;;;;;;;2.00;1.47;;;;;;;22.94;47.40;95431.38;4367292;32;20235;-62
2023/06/01 10:49:52;;;;;;;1.17;1.17;;;;;;;23.06;47.16;95440.41;4370385;32;20190;-61
2023/06/01 10:52:26;;;;;;;1.33;1.30;;;;;;;23.06;46.43;95432.28;4365052;32;20250;-61
2023/06/01 10:54:53;;;;;;;1.47;1.47;;;;;;;23.17;46.13;95430.47;4346622;32;20255;-61
2023/06/01 10:57:25;;;;;;;1.97;1.47;;;;;;;23.37;45.24;95441.88;4344030;32;20193;-62
2023/06/01 11:00:14;;;;;;;1.13;1.13;;;;;;;23.35;44.51;95428.72;4360358;32;20251;-61
2023/06/01 11:02:44;;;;;;;2.07;1.97;;;;;;;23.38;44.47;95432.59;4364638;32;20231;-61
2023/06/01 11:05:35;;;;;;;1.97;1.87;;;;;;;23.45;44.31;95428.03;4351777;32;20238;-61
2023/06/01 11:08:01;;;;;;;3.10;2.27;;;;;;;23.41;44.43;95437.28;4367097;32;20173;-62
2023/06/01 11:10:56;;;;;;;2.23;1.57;;;;;;;23.41;44.35;95421.81;4367253;32;20255;-61
2023/06/01 11:13:31;;;;;;;1.50;1.40;;;;;;;23.49;44.63;95423.41;4349344;32;20256;-61
2023/06/01 11:16:21;;;;;;;2.03;1.93;;;;;;;23.59;44.65;95422.78;4348608;32;20250;-61
2023/06/01 11:19:00;;;;;;;1.80;1.70;;;;;;;23.52;44.01;95428.13;4362553;32;20181;-61
2023/06/01 11:21:25;;;;;;;1.37;1.27;;;;;;;23.40;44.19;95424.88;4357668;32;20260;-61
2023/06/01 11:23:53;;;;;;;1.60;1.50;;;;;;;23.41;44.09;95410.97;4341421;32;20223;-60
2023/06/01 11:26:21;;;;;;;2.00;1.90;;;;;;;23.53;43.76;95418.06;4360623;32;20209;-61
2023/06/01 11:28:48;;;;;;;1.60;1.37;;;;;;;23.53;43.64;95408.00;4355619;32;20199;-61
2023/06/01 11:31:16;;;;;;;2.00;1.60;;;;;;;23.61;43.76;95403.44;4369993;32;20256;-61
2023/06/01 11:33:49;;;;;;;1.83;1.73;;;;;;;23.64;43.65;95399.97;4347984;32;20248;-61
2023/06/01 11:36:16;;;;;;;0.90;0.90;;;;;;;23.77;43.39;95395.81;4370840;32;20188;-62